sensor_id;sensor_type;location;lat;lon;timestamp;P1;durP1;ratioP1;P2;durP2;ratioP2
8088;SDS011;57635;49.194;12.104;2023-03-24T00:00:12;5.97;;;4.37;;
8088;SDS011;57635;49.194;12.104;2023-03-24T00:02:41;4.57;;;4.13;;
8088;SDS011;57635;49.194;12.104;2023-03-24T00:05:11;5.63;;;4.60;;
8088;SDS011;57635;49.194;12.104;2023-03-24T00:07:39;3.90;;;3.70;;
8088;SDS011;57635;49.194;12.104;2023-03-24T00:10:09;4.50;;;4.10;;
8088;SDS011;57635;49.194;12.104;2023-03-24T00:12:40;4.27;;;3.97;;
8088;SDS011;57635;49.194;12.104;2023-03-24T00:15:09;4.60;;;4.30;;
8088;SDS011;57635;49.194;12.104;2023-03-24T00:17:39;4.83;;;4.43;;
8088;SDS011;57635;49.194;12.104;2023-03-24T00:20:07;5.23;;;4.83;;
8088;SDS011;57635;49.194;12.104;2023-03-24T00:22:41;5.43;;;5.00;;
8088;SDS011;57635;49.194;12.104;2023-03-24T00:25:15;6.23;;;5.77;;
8088;SDS011;57635;49.194;12.104;2023-03-24T00:27:44;9.87;;;8.53;;
8088;SDS011;57635;49.194;12.104;2023-03-24T00:30:14;6.43;;;5.27;;
8088;SDS011;57635;49.194;12.104;2023-03-24T00:32:43;4.50;;;4.10;;
8088;SDS011;57635;49.194;12.104;2023-03-24T00:35:12;5.10;;;4.63;;
8088;SDS011;57635;49.194;12.104;2023-03-24T00:37:41;4.77;;;4.47;;
8088;SDS011;57635;49.194;12.104;2023-03-24T00:40:10;4.60;;;4.20;;
8088;SDS011;57635;49.194;12.104;2023-03-24T00:42:41;5.93;;;4.70;;
8088;SDS011;57635;49.194;12.104;2023-03-24T00:45:11;6.70;;;4.30;;
8088;SDS011;57635;49.194;12.104;2023-03-24T00:47:40;4.37;;;3.97;;
8088;SDS011;57635;49.194;12.104;2023-03-24T00:50:11;4.73;;;4.43;;
8088;SDS011;57635;49.194;12.104;2023-03-24T00:52:40;4.97;;;4.47;;
8088;SDS011;57635;49.194;12.104;2023-03-24T00:55:09;4.37;;;4.03;;
8088;SDS011;57635;49.194;12.104;2023-03-24T00:57:42;3.90;;;3.60;;
8088;SDS011;57635;49.194;12.104;2023-03-24T01:00:16;4.57;;;4.27;;
8088;SDS011;57635;49.194;12.104;2023-03-24T01:02:46;4.03;;;3.73;;
8088;SDS011;57635;49.194;12.104;2023-03-24T01:05:14;4.43;;;4.00;;
8088;SDS011;57635;49.194;12.104;2023-03-24T01:07:43;4.37;;;4.07;;
8088;SDS011;57635;49.194;12.104;2023-03-24T01:10:11;4.77;;;4.37;;
8088;SDS011;57635;49.194;12.104;2023-03-24T01:12:39;14.13;;;9.83;;
8088;SDS011;57635;49.194;12.104;2023-03-24T01:15:12;5.43;;;5.03;;
8088;SDS011;57635;49.194;12.104;2023-03-24T01:17:41;4.63;;;4.23;;
8088;SDS011;57635;49.194;12.104;2023-03-24T01:20:09;4.87;;;4.20;;
8088;SDS011;57635;49.194;12.104;2023-03-24T01:22:38;4.10;;;3.77;;
8088;SDS011;57635;49.194;12.104;2023-03-24T01:25:07;3.90;;;3.50;;
8088;SDS011;57635;49.194;12.104;2023-03-24T01:27:35;5.23;;;4.00;;
8088;SDS011;57635;49.194;12.104;2023-03-24T01:30:04;4.20;;;3.90;;
8088;SDS011;57635;49.194;12.104;2023-03-24T01:32:34;3.90;;;3.60;;
8088;SDS011;57635;49.194;12.104;2023-03-24T01:35:02;3.60;;;3.33;;
8088;SDS011;57635;49.194;12.104;2023-03-24T01:37:30;4.00;;;3.70;;
8088;SDS011;57635;49.194;12.104;2023-03-24T01:39:58;4.20;;;3.80;;
8088;SDS011;57635;49.194;12.104;2023-03-24T01:42:26;4.17;;;3.83;;
8088;SDS011;57635;49.194;12.104;2023-03-24T01:44:56;6.07;;;4.33;;
8088;SDS011;57635;49.194;12.104;2023-03-24T01:47:26;4.03;;;3.73;;
8088;SDS011;57635;49.194;12.104;2023-03-24T01:49:56;4.10;;;3.90;;
8088;SDS011;57635;49.194;12.104;2023-03-24T01:52:26;4.63;;;4.20;;
8088;SDS011;57635;49.194;12.104;2023-03-24T01:54:56;6.30;;;4.73;;
8088;SDS011;57635;49.194;12.104;2023-03-24T01:57:25;4.00;;;3.70;;
8088;SDS011;57635;49.194;12.104;2023-03-24T01:59:56;4.30;;;4.00;;
8088;SDS011;57635;49.194;12.104;2023-03-24T02:02:25;4.50;;;4.10;;
8088;SDS011;57635;49.194;12.104;2023-03-24T02:04:56;4.30;;;4.00;;
8088;SDS011;57635;49.194;12.104;2023-03-24T02:07:28;4.43;;;4.10;;
8088;SDS011;57635;49.194;12.104;2023-03-24T02:09:59;4.13;;;3.93;;
8088;SDS011;57635;49.194;12.104;2023-03-24T02:12:28;4.27;;;3.93;;
8088;SDS011;57635;49.194;12.104;2023-03-24T02:14:56;5.20;;;4.47;;
8088;SDS011;57635;49.194;12.104;2023-03-24T02:20:41;5.03;;;4.63;;
8088;SDS011;57635;49.194;12.104;2023-03-24T02:23:32;6.00;;;5.40;;
8088;SDS011;57635;49.194;12.104;2023-03-24T02:26:20;5.00;;;4.60;;
8088;SDS011;57635;49.194;12.104;2023-03-24T02:29:17;4.87;;;4.47;;
8088;SDS011;57635;49.194;12.104;2023-03-24T02:32:06;5.00;;;4.50;;
8088;SDS011;57635;49.194;12.104;2023-03-24T02:34:44;5.47;;;4.90;;
8088;SDS011;57635;49.194;12.104;2023-03-24T02:37:30;5.33;;;4.90;;
8088;SDS011;57635;49.194;12.104;2023-03-24T02:40:35;5.40;;;5.03;;
8088;SDS011;57635;49.194;12.104;2023-03-24T02:43:09;5.20;;;4.80;;
8088;SDS011;57635;49.194;12.104;2023-03-24T02:45:44;5.37;;;4.97;;
8088;SDS011;57635;49.194;12.104;2023-03-24T02:48:20;5.73;;;5.23;;
8088;SDS011;57635;49.194;12.104;2023-03-24T02:50:51;5.60;;;5.20;;
8088;SDS011;57635;49.194;12.104;2023-03-24T02:53:23;6.27;;;5.40;;
8088;SDS011;57635;49.194;12.104;2023-03-24T02:55:56;5.83;;;5.43;;
8088;SDS011;57635;49.194;12.104;2023-03-24T02:58:28;5.53;;;5.13;;
8088;SDS011;57635;49.194;12.104;2023-03-24T03:00:59;5.67;;;5.10;;
8088;SDS011;57635;49.194;12.104;2023-03-24T03:03:29;6.13;;;5.63;;
8088;SDS011;57635;49.194;12.104;2023-03-24T03:06:00;6.07;;;5.20;;
8088;SDS011;57635;49.194;12.104;2023-03-24T03:08:30;5.80;;;5.37;;
8088;SDS011;57635;49.194;12.104;2023-03-24T03:11:00;6.27;;;5.77;;
8088;SDS011;57635;49.194;12.104;2023-03-24T03:13:31;6.50;;;6.10;;
8088;SDS011;57635;49.194;12.104;2023-03-24T03:16:03;5.93;;;5.53;;
8088;SDS011;57635;49.194;12.104;2023-03-24T03:18:35;5.83;;;5.37;;
8088;SDS011;57635;49.194;12.104;2023-03-24T03:21:07;6.60;;;6.10;;
8088;SDS011;57635;49.194;12.104;2023-03-24T03:23:37;6.93;;;6.40;;
8088;SDS011;57635;49.194;12.104;2023-03-24T03:26:09;7.03;;;6.37;;
8088;SDS011;57635;49.194;12.104;2023-03-24T03:28:39;6.57;;;6.13;;
8088;SDS011;57635;49.194;12.104;2023-03-24T03:31:16;5.90;;;5.50;;
8088;SDS011;57635;49.194;12.104;2023-03-24T03:33:48;6.07;;;5.63;;
8088;SDS011;57635;49.194;12.104;2023-03-24T03:36:19;6.17;;;5.67;;
8088;SDS011;57635;49.194;12.104;2023-03-24T03:38:51;5.90;;;5.50;;
8088;SDS011;57635;49.194;12.104;2023-03-24T03:41:23;5.33;;;5.03;;
8088;SDS011;57635;49.194;12.104;2023-03-24T03:43:51;5.90;;;5.40;;
8088;SDS011;57635;49.194;12.104;2023-03-24T03:46:19;5.40;;;5.00;;
8088;SDS011;57635;49.194;12.104;2023-03-24T03:48:46;5.47;;;4.97;;
8088;SDS011;57635;49.194;12.104;2023-03-24T03:51:14;5.50;;;5.10;;
8088;SDS011;57635;49.194;12.104;2023-03-24T03:53:45;6.53;;;6.03;;
8088;SDS011;57635;49.194;12.104;2023-03-24T03:56:16;6.83;;;5.80;;
8088;SDS011;57635;49.194;12.104;2023-03-24T03:58:47;5.97;;;5.57;;
8088;SDS011;57635;49.194;12.104;2023-03-24T04:01:16;6.60;;;6.00;;
8088;SDS011;57635;49.194;12.104;2023-03-24T04:03:49;6.77;;;6.27;;
8088;SDS011;57635;49.194;12.104;2023-03-24T04:06:24;6.87;;;6.10;;
8088;SDS011;57635;49.194;12.104;2023-03-24T04:09:00;6.80;;;6.13;;
8088;SDS011;57635;49.194;12.104;2023-03-24T04:11:31;6.27;;;5.80;;
8088;SDS011;57635;49.194;12.104;2023-03-24T04:14:09;6.33;;;5.73;;
8088;SDS011;57635;49.194;12.104;2023-03-24T04:16:47;8.07;;;5.70;;
8088;SDS011;57635;49.194;12.104;2023-03-24T04:19:29;6.07;;;5.47;;
8088;SDS011;57635;49.194;12.104;2023-03-24T04:22:05;6.60;;;6.00;;
8088;SDS011;57635;49.194;12.104;2023-03-24T04:24:41;5.47;;;5.07;;
8088;SDS011;57635;49.194;12.104;2023-03-24T04:27:18;6.27;;;5.87;;
8088;SDS011;57635;49.194;12.104;2023-03-24T04:29:55;5.63;;;5.23;;
8088;SDS011;57635;49.194;12.104;2023-03-24T04:32:28;6.13;;;5.63;;
8088;SDS011;57635;49.194;12.104;2023-03-24T04:34:59;6.03;;;5.53;;
8088;SDS011;57635;49.194;12.104;2023-03-24T04:37:30;7.13;;;5.67;;
8088;SDS011;57635;49.194;12.104;2023-03-24T04:40:04;5.83;;;5.43;;
8088;SDS011;57635;49.194;12.104;2023-03-24T04:42:34;6.10;;;5.33;;
8088;SDS011;57635;49.194;12.104;2023-03-24T04:45:04;5.97;;;5.47;;
8088;SDS011;57635;49.194;12.104;2023-03-24T04:47:35;5.27;;;4.97;;
8088;SDS011;57635;49.194;12.104;2023-03-24T04:50:09;6.17;;;5.60;;
8088;SDS011;57635;49.194;12.104;2023-03-24T04:52:37;6.17;;;5.70;;
8088;SDS011;57635;49.194;12.104;2023-03-24T04:55:12;6.13;;;5.67;;
8088;SDS011;57635;49.194;12.104;2023-03-24T04:57:50;6.63;;;6.03;;
8088;SDS011;57635;49.194;12.104;2023-03-24T05:00:20;5.87;;;5.37;;
8088;SDS011;57635;49.194;12.104;2023-03-24T05:02:47;6.03;;;5.60;;
8088;SDS011;57635;49.194;12.104;2023-03-24T05:05:17;6.30;;;5.73;;
8088;SDS011;57635;49.194;12.104;2023-03-24T05:07:45;6.40;;;5.83;;
8088;SDS011;57635;49.194;12.104;2023-03-24T05:10:13;6.47;;;5.97;;
8088;SDS011;57635;49.194;12.104;2023-03-24T05:12:41;6.57;;;5.97;;
8088;SDS011;57635;49.194;12.104;2023-03-24T05:15:09;6.63;;;6.13;;
8088;SDS011;57635;49.194;12.104;2023-03-24T05:17:38;6.57;;;6.07;;
8088;SDS011;57635;49.194;12.104;2023-03-24T05:20:06;6.20;;;5.70;;
8088;SDS011;57635;49.194;12.104;2023-03-24T05:22:36;6.33;;;5.83;;
8088;SDS011;57635;49.194;12.104;2023-03-24T05:25:04;6.07;;;5.57;;
8088;SDS011;57635;49.194;12.104;2023-03-24T05:27:32;6.83;;;6.30;;
8088;SDS011;57635;49.194;12.104;2023-03-24T05:30:00;5.67;;;5.27;;
8088;SDS011;57635;49.194;12.104;2023-03-24T05:32:29;7.93;;;6.53;;
8088;SDS011;57635;49.194;12.104;2023-03-24T05:34:58;6.20;;;5.80;;
8088;SDS011;57635;49.194;12.104;2023-03-24T05:37:26;5.67;;;5.17;;
8088;SDS011;57635;49.194;12.104;2023-03-24T05:39:54;5.87;;;5.47;;
8088;SDS011;57635;49.194;12.104;2023-03-24T05:42:21;6.23;;;5.63;;
8088;SDS011;57635;49.194;12.104;2023-03-24T05:44:49;6.23;;;5.73;;
8088;SDS011;57635;49.194;12.104;2023-03-24T05:47:17;7.00;;;6.20;;
8088;SDS011;57635;49.194;12.104;2023-03-24T05:49:47;6.23;;;5.83;;
8088;SDS011;57635;49.194;12.104;2023-03-24T05:52:16;6.57;;;6.07;;
8088;SDS011;57635;49.194;12.104;2023-03-24T05:54:45;6.20;;;5.70;;
8088;SDS011;57635;49.194;12.104;2023-03-24T05:57:17;6.33;;;5.93;;
8088;SDS011;57635;49.194;12.104;2023-03-24T05:59:45;6.40;;;5.90;;
8088;SDS011;57635;49.194;12.104;2023-03-24T06:02:13;6.63;;;6.13;;
8088;SDS011;57635;49.194;12.104;2023-03-24T06:04:41;6.37;;;5.97;;
8088;SDS011;57635;49.194;12.104;2023-03-24T06:07:11;6.23;;;5.73;;
8088;SDS011;57635;49.194;12.104;2023-03-24T06:09:41;6.27;;;5.77;;
8088;SDS011;57635;49.194;12.104;2023-03-24T06:12:12;6.20;;;5.70;;
8088;SDS011;57635;49.194;12.104;2023-03-24T06:14:41;6.70;;;6.27;;
8088;SDS011;57635;49.194;12.104;2023-03-24T06:17:09;6.67;;;6.07;;
8088;SDS011;57635;49.194;12.104;2023-03-24T06:19:40;7.00;;;6.50;;
8088;SDS011;57635;49.194;12.104;2023-03-24T06:22:15;7.40;;;6.53;;
8088;SDS011;57635;49.194;12.104;2023-03-24T06:24:44;7.70;;;7.10;;
8088;SDS011;57635;49.194;12.104;2023-03-24T06:27:13;6.47;;;5.97;;
8088;SDS011;57635;49.194;12.104;2023-03-24T06:29:40;7.10;;;6.53;;
8088;SDS011;57635;49.194;12.104;2023-03-24T06:32:08;6.80;;;6.30;;
8088;SDS011;57635;49.194;12.104;2023-03-24T06:34:37;6.73;;;6.13;;
8088;SDS011;57635;49.194;12.104;2023-03-24T06:37:05;6.33;;;5.87;;
8088;SDS011;57635;49.194;12.104;2023-03-24T06:39:34;6.73;;;6.03;;
8088;SDS011;57635;49.194;12.104;2023-03-24T06:42:03;6.27;;;5.83;;
8088;SDS011;57635;49.194;12.104;2023-03-24T06:44:30;6.17;;;5.63;;
8088;SDS011;57635;49.194;12.104;2023-03-24T06:46:58;6.20;;;5.80;;
8088;SDS011;57635;49.194;12.104;2023-03-24T06:49:26;5.90;;;5.60;;
8088;SDS011;57635;49.194;12.104;2023-03-24T06:51:53;6.10;;;5.60;;
8088;SDS011;57635;49.194;12.104;2023-03-24T06:54:21;7.13;;;6.43;;
8088;SDS011;57635;49.194;12.104;2023-03-24T06:56:49;6.50;;;5.90;;
8088;SDS011;57635;49.194;12.104;2023-03-24T06:59:18;9.73;;;6.83;;
8088;SDS011;57635;49.194;12.104;2023-03-24T07:01:49;6.30;;;5.73;;
8088;SDS011;57635;49.194;12.104;2023-03-24T07:04:17;6.50;;;6.00;;
8088;SDS011;57635;49.194;12.104;2023-03-24T07:06:45;6.43;;;6.03;;
8088;SDS011;57635;49.194;12.104;2023-03-24T07:09:30;7.13;;;6.53;;
8088;SDS011;57635;49.194;12.104;2023-03-24T07:11:58;7.10;;;6.30;;
8088;SDS011;57635;49.194;12.104;2023-03-24T07:14:29;7.00;;;6.40;;
8088;SDS011;57635;49.194;12.104;2023-03-24T07:16:57;7.10;;;6.57;;
8088;SDS011;57635;49.194;12.104;2023-03-24T07:19:25;6.57;;;6.07;;
8088;SDS011;57635;49.194;12.104;2023-03-24T07:21:53;6.30;;;5.80;;
8088;SDS011;57635;49.194;12.104;2023-03-24T07:24:20;6.03;;;5.57;;
8088;SDS011;57635;49.194;12.104;2023-03-24T07:26:48;6.10;;;5.60;;
8088;SDS011;57635;49.194;12.104;2023-03-24T07:29:15;6.73;;;6.20;;
8088;SDS011;57635;49.194;12.104;2023-03-24T07:31:44;6.27;;;5.77;;
8088;SDS011;57635;49.194;12.104;2023-03-24T07:34:13;6.00;;;5.43;;
8088;SDS011;57635;49.194;12.104;2023-03-24T07:36:41;5.80;;;5.40;;
8088;SDS011;57635;49.194;12.104;2023-03-24T07:39:09;5.50;;;5.10;;
8088;SDS011;57635;49.194;12.104;2023-03-24T07:41:38;5.90;;;5.50;;
8088;SDS011;57635;49.194;12.104;2023-03-24T07:44:06;5.17;;;4.70;;
8088;SDS011;57635;49.194;12.104;2023-03-24T07:46:33;5.33;;;4.93;;
8088;SDS011;57635;49.194;12.104;2023-03-24T07:49:03;5.30;;;5.00;;
8088;SDS011;57635;49.194;12.104;2023-03-24T07:51:44;5.87;;;4.70;;
8088;SDS011;57635;49.194;12.104;2023-03-24T07:54:11;5.33;;;4.83;;
8088;SDS011;57635;49.194;12.104;2023-03-24T07:56:39;5.47;;;4.77;;
8088;SDS011;57635;49.194;12.104;2023-03-24T07:59:07;4.93;;;4.63;;
8088;SDS011;57635;49.194;12.104;2023-03-24T08:01:36;4.67;;;4.37;;
8088;SDS011;57635;49.194;12.104;2023-03-24T08:04:05;5.23;;;4.70;;
8088;SDS011;57635;49.194;12.104;2023-03-24T08:06:33;4.77;;;4.47;;
8088;SDS011;57635;49.194;12.104;2023-03-24T08:09:00;5.43;;;4.73;;
8088;SDS011;57635;49.194;12.104;2023-03-24T08:11:28;5.20;;;4.80;;
8088;SDS011;57635;49.194;12.104;2023-03-24T08:13:56;5.27;;;4.83;;
8088;SDS011;57635;49.194;12.104;2023-03-24T08:16:24;5.17;;;4.80;;
8088;SDS011;57635;49.194;12.104;2023-03-24T08:18:51;5.13;;;4.83;;
8088;SDS011;57635;49.194;12.104;2023-03-24T08:21:20;5.27;;;4.60;;
8088;SDS011;57635;49.194;12.104;2023-03-24T08:23:48;5.57;;;5.13;;
8088;SDS011;57635;49.194;12.104;2023-03-24T08:26:15;6.43;;;5.93;;
8088;SDS011;57635;49.194;12.104;2023-03-24T08:28:43;5.70;;;5.23;;
8088;SDS011;57635;49.194;12.104;2023-03-24T08:31:10;5.73;;;4.67;;
8088;SDS011;57635;49.194;12.104;2023-03-24T08:33:38;5.97;;;5.37;;
8088;SDS011;57635;49.194;12.104;2023-03-24T08:36:06;6.87;;;6.20;;
8088;SDS011;57635;49.194;12.104;2023-03-24T08:38:36;6.07;;;5.57;;
8088;SDS011;57635;49.194;12.104;2023-03-24T08:41:04;6.33;;;5.90;;
8088;SDS011;57635;49.194;12.104;2023-03-24T08:43:34;6.30;;;5.80;;
8088;SDS011;57635;49.194;12.104;2023-03-24T08:46:02;6.33;;;5.83;;
8088;SDS011;57635;49.194;12.104;2023-03-24T08:48:34;6.13;;;5.63;;
8088;SDS011;57635;49.194;12.104;2023-03-24T08:51:08;6.33;;;5.93;;
8088;SDS011;57635;49.194;12.104;2023-03-24T08:53:38;6.20;;;5.80;;
8088;SDS011;57635;49.194;12.104;2023-03-24T08:56:06;6.20;;;5.70;;
8088;SDS011;57635;49.194;12.104;2023-03-24T08:58:34;5.87;;;5.47;;
8088;SDS011;57635;49.194;12.104;2023-03-24T09:01:02;5.60;;;5.30;;
8088;SDS011;57635;49.194;12.104;2023-03-24T09:03:29;6.77;;;6.27;;
8088;SDS011;57635;49.194;12.104;2023-03-24T09:05:57;6.53;;;6.13;;
8088;SDS011;57635;49.194;12.104;2023-03-24T09:08:26;6.77;;;6.27;;
8088;SDS011;57635;49.194;12.104;2023-03-24T09:10:55;7.03;;;6.37;;
8088;SDS011;57635;49.194;12.104;2023-03-24T09:13:22;7.00;;;6.50;;
8088;SDS011;57635;49.194;12.104;2023-03-24T09:15:51;7.13;;;6.43;;
8088;SDS011;57635;49.194;12.104;2023-03-24T09:18:20;8.10;;;7.30;;
8088;SDS011;57635;49.194;12.104;2023-03-24T09:20:48;6.73;;;6.20;;
8088;SDS011;57635;49.194;12.104;2023-03-24T09:23:16;7.17;;;6.60;;
8088;SDS011;57635;49.194;12.104;2023-03-24T09:25:44;6.40;;;5.80;;
8088;SDS011;57635;49.194;12.104;2023-03-24T09:28:13;7.20;;;6.60;;
8088;SDS011;57635;49.194;12.104;2023-03-24T09:30:41;7.57;;;6.97;;
8088;SDS011;57635;49.194;12.104;2023-03-24T09:33:09;7.40;;;6.70;;
8088;SDS011;57635;49.194;12.104;2023-03-24T09:35:37;6.73;;;6.10;;
8088;SDS011;57635;49.194;12.104;2023-03-24T09:38:05;6.80;;;6.17;;
8088;SDS011;57635;49.194;12.104;2023-03-24T09:40:34;6.83;;;5.93;;
8088;SDS011;57635;49.194;12.104;2023-03-24T09:43:03;7.10;;;6.60;;
8088;SDS011;57635;49.194;12.104;2023-03-24T09:45:35;6.70;;;6.10;;
8088;SDS011;57635;49.194;12.104;2023-03-24T09:48:06;7.47;;;6.73;;
8088;SDS011;57635;49.194;12.104;2023-03-24T09:50:38;6.93;;;6.33;;
8088;SDS011;57635;49.194;12.104;2023-03-24T09:53:08;7.77;;;6.73;;
8088;SDS011;57635;49.194;12.104;2023-03-24T09:55:43;6.33;;;5.80;;
8088;SDS011;57635;49.194;12.104;2023-03-24T09:58:11;7.17;;;6.70;;
8088;SDS011;57635;49.194;12.104;2023-03-24T10:00:40;7.37;;;6.77;;
8088;SDS011;57635;49.194;12.104;2023-03-24T10:03:12;7.50;;;6.87;;
8088;SDS011;57635;49.194;12.104;2023-03-24T10:05:42;7.13;;;6.43;;
8088;SDS011;57635;49.194;12.104;2023-03-24T10:08:13;7.13;;;6.57;;
8088;SDS011;57635;49.194;12.104;2023-03-24T10:10:44;7.40;;;6.90;;
8088;SDS011;57635;49.194;12.104;2023-03-24T10:13:19;7.30;;;6.80;;
8088;SDS011;57635;49.194;12.104;2023-03-24T10:15:51;7.07;;;6.53;;
8088;SDS011;57635;49.194;12.104;2023-03-24T10:18:25;9.53;;;8.63;;
8088;SDS011;57635;49.194;12.104;2023-03-24T10:20:59;8.90;;;7.00;;
8088;SDS011;57635;49.194;12.104;2023-03-24T10:23:31;7.07;;;6.47;;
8088;SDS011;57635;49.194;12.104;2023-03-24T10:26:02;7.43;;;6.77;;
8088;SDS011;57635;49.194;12.104;2023-03-24T10:28:33;9.17;;;6.63;;
8088;SDS011;57635;49.194;12.104;2023-03-24T10:31:08;8.43;;;7.00;;
8088;SDS011;57635;49.194;12.104;2023-03-24T10:33:38;8.03;;;7.33;;
8088;SDS011;57635;49.194;12.104;2023-03-24T10:36:08;7.63;;;6.97;;
8088;SDS011;57635;49.194;12.104;2023-03-24T10:38:39;7.43;;;6.83;;
8088;SDS011;57635;49.194;12.104;2023-03-24T10:41:08;6.97;;;6.20;;
8088;SDS011;57635;49.194;12.104;2023-03-24T10:43:41;5.67;;;5.27;;
8088;SDS011;57635;49.194;12.104;2023-03-24T10:46:13;4.80;;;4.50;;
8088;SDS011;57635;49.194;12.104;2023-03-24T10:48:43;5.00;;;4.37;;
8088;SDS011;57635;49.194;12.104;2023-03-24T10:51:12;4.43;;;4.13;;
8088;SDS011;57635;49.194;12.104;2023-03-24T10:53:41;5.73;;;4.43;;
8088;SDS011;57635;49.194;12.104;2023-03-24T10:56:11;4.10;;;3.80;;
8088;SDS011;57635;49.194;12.104;2023-03-24T10:58:42;4.27;;;3.97;;
8088;SDS011;57635;49.194;12.104;2023-03-24T11:01:21;5.17;;;4.67;;
8088;SDS011;57635;49.194;12.104;2023-03-24T11:03:51;5.63;;;4.80;;
8088;SDS011;57635;49.194;12.104;2023-03-24T11:06:19;4.37;;;4.00;;
8088;SDS011;57635;49.194;12.104;2023-03-24T11:08:47;3.97;;;3.70;;
8088;SDS011;57635;49.194;12.104;2023-03-24T11:11:36;4.20;;;3.90;;
8088;SDS011;57635;49.194;12.104;2023-03-24T11:14:16;3.70;;;3.47;;
8088;SDS011;57635;49.194;12.104;2023-03-24T11:16:50;3.70;;;3.43;;
8088;SDS011;57635;49.194;12.104;2023-03-24T11:19:19;3.13;;;2.93;;
8088;SDS011;57635;49.194;12.104;2023-03-24T11:21:48;3.23;;;2.93;;
8088;SDS011;57635;49.194;12.104;2023-03-24T11:24:19;3.30;;;3.10;;
8088;SDS011;57635;49.194;12.104;2023-03-24T11:26:49;3.20;;;3.00;;
8088;SDS011;57635;49.194;12.104;2023-03-24T11:29:21;2.90;;;2.70;;
8088;SDS011;57635;49.194;12.104;2023-03-24T11:31:54;2.90;;;2.70;;
8088;SDS011;57635;49.194;12.104;2023-03-24T11:34:24;3.97;;;2.77;;
8088;SDS011;57635;49.194;12.104;2023-03-24T11:36:52;3.50;;;3.20;;
8088;SDS011;57635;49.194;12.104;2023-03-24T11:39:22;3.10;;;2.90;;
8088;SDS011;57635;49.194;12.104;2023-03-24T11:42:04;3.30;;;3.10;;
8088;SDS011;57635;49.194;12.104;2023-03-24T11:44:43;2.70;;;2.60;;
8088;SDS011;57635;49.194;12.104;2023-03-24T11:47:14;2.60;;;2.40;;
8088;SDS011;57635;49.194;12.104;2023-03-24T11:49:45;3.30;;;3.00;;
8088;SDS011;57635;49.194;12.104;2023-03-24T11:52:17;3.27;;;3.07;;
8088;SDS011;57635;49.194;12.104;2023-03-24T11:54:47;3.07;;;2.87;;
8088;SDS011;57635;49.194;12.104;2023-03-24T11:57:16;3.00;;;2.80;;
8088;SDS011;57635;49.194;12.104;2023-03-24T11:59:48;4.07;;;3.10;;
8088;SDS011;57635;49.194;12.104;2023-03-24T12:02:21;5.30;;;3.30;;
8088;SDS011;57635;49.194;12.104;2023-03-24T12:05:02;3.57;;;3.37;;
8088;SDS011;57635;49.194;12.104;2023-03-24T12:10:53;3.90;;;3.70;;
8088;SDS011;57635;49.194;12.104;2023-03-24T12:13:31;3.53;;;3.23;;
8088;SDS011;57635;49.194;12.104;2023-03-24T12:16:03;4.00;;;3.70;;
8088;SDS011;57635;49.194;12.104;2023-03-24T12:18:57;3.60;;;3.40;;
8088;SDS011;57635;49.194;12.104;2023-03-24T12:21:36;3.93;;;3.73;;
8088;SDS011;57635;49.194;12.104;2023-03-24T12:24:13;3.90;;;3.57;;
8088;SDS011;57635;49.194;12.104;2023-03-24T12:26:49;3.67;;;3.47;;
8088;SDS011;57635;49.194;12.104;2023-03-24T12:29:25;3.93;;;3.63;;
8088;SDS011;57635;49.194;12.104;2023-03-24T12:32:04;4.73;;;4.33;;
8088;SDS011;57635;49.194;12.104;2023-03-24T12:34:54;4.50;;;4.17;;
8088;SDS011;57635;49.194;12.104;2023-03-24T12:37:30;4.27;;;3.97;;
8088;SDS011;57635;49.194;12.104;2023-03-24T12:40:04;4.27;;;3.87;;
8088;SDS011;57635;49.194;12.104;2023-03-24T12:42:45;3.53;;;3.30;;
8088;SDS011;57635;49.194;12.104;2023-03-24T12:45:25;3.53;;;3.33;;
8088;SDS011;57635;49.194;12.104;2023-03-24T12:50:56;3.40;;;3.20;;
8088;SDS011;57635;49.194;12.104;2023-03-24T12:53:33;3.83;;;3.60;;
8088;SDS011;57635;49.194;12.104;2023-03-24T12:56:08;3.90;;;3.37;;
8088;SDS011;57635;49.194;12.104;2023-03-24T12:58:40;3.60;;;3.30;;
8088;SDS011;57635;49.194;12.104;2023-03-24T13:01:10;4.03;;;3.80;;
8088;SDS011;57635;49.194;12.104;2023-03-24T13:03:42;3.20;;;3.07;;
8088;SDS011;57635;49.194;12.104;2023-03-24T13:06:16;3.43;;;3.17;;
8088;SDS011;57635;49.194;12.104;2023-03-24T13:08:51;3.13;;;3.03;;
8088;SDS011;57635;49.194;12.104;2023-03-24T13:11:27;3.10;;;2.90;;
8088;SDS011;57635;49.194;12.104;2023-03-24T13:14:02;3.40;;;3.20;;
8088;SDS011;57635;49.194;12.104;2023-03-24T13:16:32;3.23;;;2.97;;
8088;SDS011;57635;49.194;12.104;2023-03-24T13:19:00;3.43;;;3.23;;
8088;SDS011;57635;49.194;12.104;2023-03-24T13:21:31;3.00;;;2.80;;
8088;SDS011;57635;49.194;12.104;2023-03-24T13:24:01;3.27;;;2.97;;
8088;SDS011;57635;49.194;12.104;2023-03-24T13:26:36;3.20;;;2.97;;
8088;SDS011;57635;49.194;12.104;2023-03-24T13:29:14;2.80;;;2.60;;
8088;SDS011;57635;49.194;12.104;2023-03-24T13:31:48;3.10;;;2.90;;
8088;SDS011;57635;49.194;12.104;2023-03-24T13:34:23;3.17;;;2.97;;
8088;SDS011;57635;49.194;12.104;2023-03-24T13:36:55;2.50;;;2.40;;
8088;SDS011;57635;49.194;12.104;2023-03-24T13:39:25;2.37;;;2.27;;
8088;SDS011;57635;49.194;12.104;2023-03-24T13:41:55;2.73;;;2.60;;
8088;SDS011;57635;49.194;12.104;2023-03-24T13:44:24;2.97;;;2.80;;
8088;SDS011;57635;49.194;12.104;2023-03-24T13:46:58;2.60;;;2.40;;
8088;SDS011;57635;49.194;12.104;2023-03-24T13:49:29;2.70;;;2.60;;
8088;SDS011;57635;49.194;12.104;2023-03-24T13:52:01;2.50;;;2.40;;
8088;SDS011;57635;49.194;12.104;2023-03-24T13:54:31;2.10;;;2.00;;
8088;SDS011;57635;49.194;12.104;2023-03-24T13:57:03;2.87;;;2.67;;
8088;SDS011;57635;49.194;12.104;2023-03-24T13:59:38;3.23;;;3.03;;
8088;SDS011;57635;49.194;12.104;2023-03-24T14:02:22;3.03;;;2.60;;
8088;SDS011;57635;49.194;12.104;2023-03-24T14:07:48;3.13;;;2.40;;
8088;SDS011;57635;49.194;12.104;2023-03-24T14:10:27;2.73;;;2.57;;
8088;SDS011;57635;49.194;12.104;2023-03-24T14:13:03;3.17;;;2.97;;
8088;SDS011;57635;49.194;12.104;2023-03-24T14:15:32;2.60;;;2.50;;
8088;SDS011;57635;49.194;12.104;2023-03-24T14:18:13;3.07;;;2.80;;
8088;SDS011;57635;49.194;12.104;2023-03-24T14:20:43;2.43;;;2.33;;
8088;SDS011;57635;49.194;12.104;2023-03-24T14:23:30;3.50;;;2.90;;
8088;SDS011;57635;49.194;12.104;2023-03-24T14:26:00;3.13;;;2.93;;
8088;SDS011;57635;49.194;12.104;2023-03-24T14:28:29;2.67;;;2.50;;
8088;SDS011;57635;49.194;12.104;2023-03-24T14:31:08;2.80;;;2.60;;
8088;SDS011;57635;49.194;12.104;2023-03-24T14:33:38;3.00;;;2.80;;
8088;SDS011;57635;49.194;12.104;2023-03-24T14:36:07;2.97;;;2.70;;
8088;SDS011;57635;49.194;12.104;2023-03-24T14:38:40;2.43;;;2.33;;
8088;SDS011;57635;49.194;12.104;2023-03-24T14:41:11;2.53;;;2.30;;
8088;SDS011;57635;49.194;12.104;2023-03-24T14:43:57;2.53;;;2.43;;
8088;SDS011;57635;49.194;12.104;2023-03-24T14:46:32;2.20;;;2.10;;
8088;SDS011;57635;49.194;12.104;2023-03-24T14:49:02;2.30;;;2.20;;
8088;SDS011;57635;49.194;12.104;2023-03-24T14:51:34;2.03;;;1.93;;
8088;SDS011;57635;49.194;12.104;2023-03-24T14:54:10;2.20;;;2.10;;
8088;SDS011;57635;49.194;12.104;2023-03-24T14:56:42;2.80;;;2.33;;
8088;SDS011;57635;49.194;12.104;2023-03-24T14:59:15;2.80;;;2.60;;
8088;SDS011;57635;49.194;12.104;2023-03-24T15:01:48;2.30;;;2.20;;
8088;SDS011;57635;49.194;12.104;2023-03-24T15:04:16;2.67;;;2.47;;
8088;SDS011;57635;49.194;12.104;2023-03-24T15:06:44;2.10;;;1.97;;
8088;SDS011;57635;49.194;12.104;2023-03-24T15:09:15;2.73;;;2.53;;
8088;SDS011;57635;49.194;12.104;2023-03-24T15:11:44;2.80;;;2.60;;
8088;SDS011;57635;49.194;12.104;2023-03-24T15:14:15;1.83;;;1.73;;
8088;SDS011;57635;49.194;12.104;2023-03-24T15:16:50;2.13;;;2.03;;
8088;SDS011;57635;49.194;12.104;2023-03-24T15:19:20;2.05;;;1.92;;
8088;SDS011;57635;49.194;12.104;2023-03-24T15:21:49;2.33;;;2.00;;
8088;SDS011;57635;49.194;12.104;2023-03-24T15:24:26;2.27;;;1.83;;